Time;durP1;ratioP1;P1;durP2;ratioP2;P2;SDS_P1;SDS_P2;PMS_P1;PMS_P2;Temp;Humidity;BMP_temperature;BMP_pressure;BME280_temperature;BME280_humidity;BME280_pressure;Samples;Min_cycle;Max_cycle;Signal;HPM_P1;HPM_P2
2022/07/05 00:00:14;;;;;;;4.27;3.07;;;27.50;88.10;;;;;;5015345;28;20185;-93
2022/07/05 00:02:41;;;;;;;3.73;3.40;;;27.40;88.30;;;;;;5016550;28;20286;-91
2022/07/05 00:05:07;;;;;;;3.80;3.50;;;27.40;88.50;;;;;;5015407;28;20424;-92
2022/07/05 00:07:33;;;;;;;4.30;3.90;;;27.30;88.60;;;;;;5016193;28;20953;-89
2022/07/05 00:09:59;;;;;;;3.30;3.10;;;27.30;89.00;;;;;;5015096;28;20471;-88
2022/07/05 00:12:28;;;;;;;3.97;3.40;;;27.20;89.10;;;;;;5015007;28;20199;-93
2022/07/05 00:14:54;;;;;;;4.83;3.70;;;27.20;89.50;;;;;;5016293;28;20492;-93
2022/07/05 00:17:19;;;;;;;5.03;3.80;;;27.10;89.60;;;;;;5015483;28;20536;-89
2022/07/05 00:19:45;;;;;;;4.13;3.60;;;27.10;89.90;;;;;;5000201;28;20265;-93
2022/07/05 00:22:11;;;;;;;5.10;4.60;;;27.10;90.00;;;;;;5019070;28;20195;-92
2022/07/05 00:24:37;;;;;;;3.87;3.47;;;27.00;90.00;;;;;;5000106;28;20175;-94
2022/07/05 00:27:03;;;;;;;4.40;4.00;;;27.00;90.10;;;;;;5016076;28;20562;-91
2022/07/05 00:29:29;;;;;;;7.23;4.40;;;27.00;90.20;;;;;;5015837;28;20177;-89
2022/07/05 00:31:54;;;;;;;4.50;4.10;;;27.00;90.20;;;;;;5014625;28;20432;-89
2022/07/05 00:34:20;;;;;;;4.40;3.73;;;27.00;90.30;;;;;;5015746;28;20408;-88
2022/07/05 00:36:46;;;;;;;3.83;3.53;;;26.90;90.30;;;;;;5016096;28;20273;-93
2022/07/05 00:39:12;;;;;;;4.80;4.30;;;27.00;90.30;;;;;;5015631;28;20551;-87
2022/07/05 00:41:37;;;;;;;4.50;4.07;;;27.00;90.70;;;;;;5014533;28;20199;-91
2022/07/05 00:44:09;;;;;;;4.47;4.13;;;26.90;90.40;;;;;;5015666;28;20412;-90
2022/07/05 00:46:37;;;;;;;4.30;3.90;;;26.90;90.40;;;;;;5015986;28;20694;-89
2022/07/05 00:49:04;;;;;;;5.53;4.13;;;26.90;90.50;;;;;;5014942;28;20478;-89
2022/07/05 00:51:32;;;;;;;5.33;4.30;;;26.90;90.50;;;;;;5015333;28;20456;-89
2022/07/05 00:54:00;;;;;;;4.00;3.60;;;26.90;90.60;;;;;;5015149;28;20409;-93
2022/07/05 00:56:26;;;;;;;4.27;3.90;;;26.90;90.60;;;;;;5014574;28;20849;-92
2022/07/05 00:58:52;;;;;;;4.23;3.93;;;26.90;90.70;;;;;;5014429;28;20424;-93
2022/07/05 01:01:19;;;;;;;4.27;3.87;;;26.90;90.70;;;;;;5016589;28;20916;-89
2022/07/05 01:03:45;;;;;;;4.10;3.70;;;26.90;90.70;;;;;;5013868;28;20179;-88
2022/07/05 01:06:12;;;;;;;4.17;3.87;;;26.90;90.70;;;;;;5014184;28;20971;-93
2022/07/05 01:08:40;;;;;;;3.70;3.40;;;26.90;90.80;;;;;;5014131;28;20419;-88
2022/07/05 01:11:11;;;;;;;3.70;3.40;;;26.90;90.70;;;;;;5014048;28;20433;-93
2022/07/05 01:13:37;;;;;;;3.77;3.57;;;26.90;90.70;;;;;;5014243;28;20409;-93
2022/07/05 01:16:04;;;;;;;4.90;4.13;;;26.90;90.80;;;;;;5015303;28;20480;-89
2022/07/05 01:18:31;;;;;;;4.60;3.67;;;26.90;90.80;;;;;;5015016;28;20971;-88
2022/07/05 01:20:58;;;;;;;4.53;3.80;;;26.90;90.80;;;;;;5013803;28;20859;-93
2022/07/05 01:23:27;;;;;;;4.53;4.13;;;26.90;90.80;;;;;;5013655;28;20967;-89
2022/07/05 01:25:54;;;;;;;4.40;4.00;;;26.80;90.80;;;;;;5015168;28;20417;-89
2022/07/05 01:28:20;;;;;;;5.30;4.27;;;26.80;90.90;;;;;;5013569;28;20507;-92
2022/07/05 01:30:46;;;;;;;3.90;3.50;;;26.80;90.90;;;;;;5013582;28;20481;-89
2022/07/05 01:33:12;;;;;;;4.77;3.87;;;26.80;91.00;;;;;;5013457;28;20848;-89
2022/07/05 01:35:37;;;;;;;5.73;4.00;;;26.80;91.10;;;;;;5014766;28;20460;-89
2022/07/05 01:38:03;;;;;;;5.10;4.10;;;26.70;91.10;;;;;;5017479;28;20191;-89
2022/07/05 01:40:29;;;;;;;4.73;4.20;;;26.70;91.20;;;;;;5001053;28;20190;-89
2022/07/05 01:42:55;;;;;;;4.80;3.93;;;26.60;91.30;;;;;;5016272;28;20429;-89
2022/07/05 01:48:19;;;;;;;5.10;4.30;;;26.50;91.40;;;;;;5005634;28;20215;-92
2022/07/05 01:50:57;;;;;;;8.10;4.50;;;26.50;91.60;;;;;;5015498;28;20431;-93
2022/07/05 01:53:30;;;;;;;5.17;3.73;;;26.40;91.60;;;;;;5013075;28;21042;-91
2022/07/05 01:55:57;;;;;;;4.40;4.10;;;26.40;91.70;;;;;;5014755;28;20534;-89
2022/07/05 01:58:25;;;;;;;4.87;4.37;;;26.30;91.70;;;;;;5014321;28;20531;-92
2022/07/05 02:00:55;;;;;;;5.33;4.50;;;26.30;91.80;;;;;;5014843;28;20415;-88
2022/07/05 02:03:22;;;;;;;4.40;4.00;;;26.30;91.90;;;;;;5014452;28;20987;-90
2022/07/05 02:05:48;;;;;;;6.00;4.70;;;26.20;91.90;;;;;;5014049;28;20440;-93
2022/07/05 02:08:15;;;;;;;4.37;3.97;;;26.20;92.00;;;;;;5018291;28;20482;-89
2022/07/05 02:10:41;;;;;;;4.40;4.03;;;26.20;92.00;;;;;;5017187;28;20429;-89
2022/07/05 02:13:08;;;;;;;4.87;4.47;;;26.20;92.10;;;;;;5018367;28;20960;-88
2022/07/05 02:15:35;;;;;;;6.00;4.40;;;26.10;92.10;;;;;;5018346;28;20439;-93
2022/07/05 02:18:03;;;;;;;7.07;4.60;;;26.10;92.20;;;;;;5017232;28;20439;-89
2022/07/05 02:20:29;;;;;;;4.77;4.37;;;26.00;92.30;;;;;;5017130;28;20446;-93
2022/07/05 02:22:55;;;;;;;5.50;5.10;;;26.00;92.40;;;;;;5018058;28;20543;-92
2022/07/05 02:25:21;;;;;;;7.10;3.93;;;25.90;92.50;;;;;;5018595;28;21016;-93
2022/07/05 02:27:48;;;;;;;4.30;3.90;;;25.80;92.50;;;;;;5016920;28;20202;-92
2022/07/05 02:30:14;;;;;;;7.13;4.70;;;25.80;92.60;;;;;;5017195;28;20439;-92
2022/07/05 02:32:39;;;;;;;4.77;3.50;;;25.80;92.70;;;;;;5017158;28;20524;-93
2022/07/05 02:35:06;;;;;;;4.13;3.73;;;25.70;92.80;;;;;;5018154;28;20897;-92
2022/07/05 02:37:32;;;;;;;5.00;4.50;;;25.70;92.80;;;;;;5016842;28;20223;-89
2022/07/05 02:39:57;;;;;;;5.00;4.00;;;25.60;92.90;;;;;;5017749;28;20426;-88
2022/07/05 02:42:23;;;;;;;5.83;3.97;;;25.60;92.90;;;;;;5018033;28;20613;-92
2022/07/05 02:44:49;;;;;;;4.70;4.20;;;25.60;93.10;;;;;;5016548;28;20183;-89
2022/07/05 02:47:14;;;;;;;6.47;4.77;;;25.50;93.20;;;;;;5016875;28;20238;-89
2022/07/05 02:49:40;;;;;;;4.70;4.30;;;25.50;93.30;;;;;;5025074;28;20296;-89
2022/07/05 02:52:06;;;;;;;5.60;4.27;;;25.40;93.30;;;;;;5017526;28;20203;-89
2022/07/05 02:54:33;;;;;;;4.80;4.40;;;25.40;93.30;;;;;;5016312;28;20217;-89
2022/07/05 02:56:59;;;;;;;6.70;4.03;;;25.40;93.30;;;;;;5016196;28;20575;-92
2022/07/05 02:59:25;;;;;;;4.00;3.60;;;25.40;93.40;;;;;;5023885;28;20428;-89
2022/07/05 03:01:50;;;;;;;6.60;4.00;;;25.40;93.50;;;;;;5022667;28;20442;-92
2022/07/05 03:04:16;;;;;;;7.80;3.90;;;25.40;93.50;;;;;;5017970;28;20181;-89
2022/07/05 03:06:41;;;;;;;4.70;4.17;;;25.40;93.60;;;;;;5021705;28;20221;-91
2022/07/05 03:09:07;;;;;;;5.30;4.90;;;25.40;93.50;;;;;;5016392;28;20233;-92
2022/07/05 03:11:33;;;;;;;8.50;5.00;;;25.40;93.50;;;;;;5016227;28;20244;-92
2022/07/05 03:13:58;;;;;;;5.20;4.67;;;25.40;93.50;;;;;;5016519;28;20665;-89
2022/07/05 03:16:24;;;;;;;4.50;4.10;;;25.40;93.50;;;;;;5016186;28;20710;-88
2022/07/05 03:18:51;;;;;;;6.07;4.60;;;25.40;93.50;;;;;;5014465;28;20273;-89
2022/07/05 03:21:17;;;;;;;4.97;4.40;;;25.40;93.50;;;;;;5016083;28;20991;-89
2022/07/05 03:23:43;;;;;;;5.13;4.63;;;25.40;93.40;;;;;;5016026;28;20470;-91
2022/07/05 03:26:08;;;;;;;4.33;3.93;;;25.40;93.40;;;;;;5016162;28;20423;-92
2022/07/05 03:28:34;;;;;;;7.90;3.93;;;25.30;93.30;;;;;;5017099;28;20214;-89
2022/07/05 03:31:00;;;;;;;4.93;4.43;;;25.40;93.30;;;;;;5016116;28;20518;-92
2022/07/05 03:33:26;;;;;;;5.03;4.30;;;25.40;93.30;;;;;;5017168;28;20202;-90
2022/07/05 03:35:51;;;;;;;5.37;4.23;;;25.30;93.30;;;;;;5016913;28;20207;-92
2022/07/05 03:38:17;;;;;;;4.80;4.40;;;25.30;93.30;;;;;;5015908;28;20695;-93
2022/07/05 03:40:43;;;;;;;4.87;4.37;;;25.30;93.20;;;;;;5017077;28;20183;-89
2022/07/05 03:43:08;;;;;;;8.60;4.20;;;25.30;93.20;;;;;;5015428;28;20211;-93
2022/07/05 03:45:34;;;;;;;5.43;4.90;;;25.30;93.40;;;;;;5017004;28;20175;-90
2022/07/05 03:48:00;;;;;;;5.50;5.00;;;25.30;93.80;;;;;;5015454;28;20203;-89
2022/07/05 03:50:27;;;;;;;5.00;4.50;;;25.20;93.90;;;;;;5015466;28;20235;-92
2022/07/05 03:52:52;;;;;;;4.87;4.40;;;25.20;93.90;;;;;;5016612;28;20519;-89
2022/07/05 03:55:18;;;;;;;6.27;4.60;;;25.20;94.00;;;;;;5016642;28;20458;-91
2022/07/05 03:57:45;;;;;;;6.23;4.00;;;25.20;93.50;;;;;;5015012;28;20213;-92
2022/07/05 04:00:11;;;;;;;6.03;4.40;;;25.20;93.30;;;;;;5016712;28;20185;-93
2022/07/05 04:02:37;;;;;;;5.17;4.20;;;25.20;93.30;;;;;;5016412;28;20429;-92
2022/07/05 04:05:03;;;;;;;6.57;5.37;;;25.30;93.30;;;;;;5015213;28;20764;-89
2022/07/05 04:07:28;;;;;;;5.10;4.50;;;25.20;93.30;;;;;;5015180;28;20206;-89
2022/07/05 04:09:54;;;;;;;5.33;4.80;;;25.20;93.30;;;;;;5015034;28;20774;-92
2022/07/05 04:12:20;;;;;;;4.23;3.83;;;25.30;93.40;;;;;;5016361;28;20552;-89
2022/07/05 04:14:45;;;;;;;12.53;8.73;;;25.30;93.30;;;;;;5014751;28;20182;-92
2022/07/05 04:17:11;;;;;;;13.87;10.70;;;25.30;93.30;;;;;;5016262;28;20222;-92
2022/07/05 04:19:36;;;;;;;11.73;9.67;;;25.30;93.30;;;;;;5031646;28;20269;-89
2022/07/05 04:22:03;;;;;;;5.13;4.60;;;25.30;93.30;;;;;;5014606;28;20267;-88
2022/07/05 04:24:29;;;;;;;6.77;5.87;;;25.30;93.60;;;;;;5015203;28;20182;-89
2022/07/05 04:26:55;;;;;;;7.57;5.30;;;25.30;93.30;;;;;;5031106;28;20471;-92
2022/07/05 04:29:20;;;;;;;6.37;4.90;;;25.30;93.50;;;;;;5015259;28;20190;-90
2022/07/05 04:31:46;;;;;;;5.77;4.80;;;25.30;93.40;;;;;;5015677;28;20205;-89
2022/07/05 04:34:11;;;;;;;5.47;4.50;;;25.30;93.30;;;;;;5015978;28;20209;-89
2022/07/05 04:36:40;;;;;;;5.27;4.20;;;25.40;93.30;;;;;;5014847;28;20311;-90
2022/07/05 04:39:06;;;;;;;4.63;4.23;;;25.40;93.30;;;;;;5015719;28;20232;-89
2022/07/05 04:41:32;;;;;;;4.87;4.47;;;25.40;93.40;;;;;;5014887;28;20447;-93
2022/07/05 04:43:57;;;;;;;4.93;3.83;;;25.50;93.50;;;;;;5015658;28;20416;-91
2022/07/05 04:46:23;;;;;;;4.97;4.50;;;25.50;93.60;;;;;;5014399;28;20202;-92
2022/07/05 04:48:49;;;;;;;4.37;3.97;;;25.50;93.70;;;;;;5015323;28;20630;-92
2022/07/05 04:51:14;;;;;;;5.30;4.80;;;25.60;93.70;;;;;;4997232;28;20187;-92
2022/07/05 04:53:40;;;;;;;6.50;3.93;;;25.60;93.80;;;;;;5015628;28;20183;-90
2022/07/05 04:56:06;;;;;;;4.67;4.20;;;25.60;93.90;;;;;;4997785;28;20228;-92
2022/07/05 04:58:31;;;;;;;3.83;3.50;;;25.70;94.00;;;;;;5017391;28;20247;-89
2022/07/05 05:00:57;;;;;;;5.60;4.13;;;25.70;93.90;;;;;;5014707;28;20229;-89
2022/07/05 05:03:23;;;;;;;5.13;3.40;;;25.80;93.80;;;;;;5011061;28;20470;-91
2022/07/05 05:05:49;;;;;;;5.37;3.90;;;25.80;93.80;;;;;;5012126;28;20186;-87
2022/07/05 05:08:14;;;;;;;4.30;3.90;;;25.90;93.70;;;;;;5013109;28;20272;-89
2022/07/05 05:10:40;;;;;;;4.60;4.10;;;26.00;93.70;;;;;;4989461;28;20666;-89
2022/07/05 05:13:08;;;;;;;5.10;4.50;;;26.00;93.50;;;;;;5013003;28;20210;-89
2022/07/05 05:15:34;;;;;;;4.87;4.00;;;26.10;93.50;;;;;;5012772;28;20621;-91
2022/07/05 05:18:00;;;;;;;3.80;3.50;;;26.20;93.40;;;;;;5015961;28;20456;-91
2022/07/05 05:20:26;;;;;;;4.00;3.60;;;26.30;93.30;;;;;;4999202;28;20190;-91
2022/07/05 05:22:51;;;;;;;5.20;3.90;;;26.30;93.20;;;;;;5000914;28;20984;-91
2022/07/05 05:25:17;;;;;;;5.67;4.27;;;26.40;93.10;;;;;;5005304;28;20277;-90
2022/07/05 05:27:48;;;;;;;6.30;4.60;;;26.50;93.10;;;;;;5016339;28;20203;-90
2022/07/05 05:30:18;;;;;;;4.43;3.90;;;26.50;93.10;;;;;;4996732;28;20432;-92
2022/07/05 05:32:43;;;;;;;5.40;4.57;;;26.60;93.10;;;;;;5016308;28;20452;-91
2022/07/05 05:35:10;;;;;;;4.20;3.80;;;26.60;92.90;;;;;;5015490;28;20449;-90
2022/07/05 05:37:46;;;;;;;5.40;4.10;;;26.60;92.90;;;;;;4996356;28;20245;-89
2022/07/05 05:40:12;;;;;;;8.63;3.97;;;26.70;93.00;;;;;;5009132;28;20440;-92
2022/07/05 05:42:38;;;;;;;4.50;3.83;;;26.70;93.00;;;;;;4995769;28;20487;-92
2022/07/05 05:45:04;;;;;;;5.30;3.90;;;26.80;92.40;;;;;;4996826;28;20206;-88
2022/07/05 05:47:30;;;;;;;4.70;4.27;;;26.90;92.50;;;;;;4995249;28;20203;-92
2022/07/05 05:49:55;;;;;;;5.07;4.57;;;26.90;92.50;;;;;;5005524;28;20505;-89
2022/07/05 05:52:21;;;;;;;5.27;4.73;;;27.00;92.60;;;;;;5011065;28;20445;-89
2022/07/05 05:54:47;;;;;;;5.80;5.10;;;27.10;92.40;;;;;;5027896;28;20636;-88
2022/07/05 05:57:12;;;;;;;4.70;3.90;;;27.10;92.50;;;;;;5012957;28;20688;-90
2022/07/05 05:59:38;;;;;;;6.37;4.57;;;27.20;92.30;;;;;;5013736;28;20633;-90
2022/07/05 06:02:04;;;;;;;7.67;4.27;;;27.30;92.40;;;;;;5012682;28;20269;-91
2022/07/05 06:04:30;;;;;;;5.13;4.63;;;27.30;92.30;;;;;;5013783;28;20540;-91
2022/07/05 06:06:58;;;;;;;5.57;4.70;;;27.40;92.10;;;;;;5011904;28;20285;-91
2022/07/05 06:09:24;;;;;;;11.27;4.87;;;27.40;92.20;;;;;;5012857;28;20202;-93
2022/07/05 06:11:49;;;;;;;5.40;4.50;;;27.40;92.00;;;;;;5011499;28;21079;-89
2022/07/05 06:14:15;;;;;;;5.00;4.50;;;27.40;92.00;;;;;;5011993;28;20187;-89
2022/07/05 06:16:41;;;;;;;5.00;4.50;;;27.40;91.90;;;;;;5008856;28;20839;-90
2022/07/05 06:19:10;;;;;;;4.57;4.17;;;27.50;91.90;;;;;;5002094;28;20274;-92
2022/07/05 06:21:36;;;;;;;5.60;5.00;;;27.50;91.80;;;;;;5012864;28;20207;-90
2022/07/05 06:24:02;;;;;;;5.83;3.93;;;27.50;91.50;;;;;;5010861;28;20423;-91
2022/07/05 06:26:27;;;;;;;6.70;4.90;;;27.60;91.60;;;;;;5011364;28;20441;-93
2022/07/05 06:28:53;;;;;;;5.37;4.80;;;27.60;91.70;;;;;;5022497;28;20184;-92
2022/07/05 06:31:18;;;;;;;6.50;5.30;;;27.60;91.70;;;;;;5002171;28;20182;-89
2022/07/05 06:33:44;;;;;;;5.40;4.90;;;27.60;91.70;;;;;;5011525;28;20179;-91
2022/07/05 06:36:10;;;;;;;5.60;5.10;;;27.60;91.70;;;;;;5012536;28;20225;-89
2022/07/05 06:38:36;;;;;;;8.30;5.00;;;27.70;91.70;;;;;;5011624;28;20194;-93
2022/07/05 06:41:02;;;;;;;5.37;4.10;;;27.70;91.70;;;;;;5009484;28;20644;-93
2022/07/05 06:43:27;;;;;;;4.23;3.90;;;27.70;91.60;;;;;;5010786;28;20187;-88
2022/07/05 06:45:54;;;;;;;5.57;5.00;;;27.70;91.60;;;;;;5012336;28;20443;-89
2022/07/05 06:48:19;;;;;;;5.70;4.70;;;27.70;91.60;;;;;;5007710;28;20353;-91
2022/07/05 06:50:45;;;;;;;6.23;4.80;;;27.70;91.60;;;;;;5006978;28;20512;-92
2022/07/05 06:53:14;;;;;;;5.33;4.43;;;27.70;91.90;;;;;;4993272;28;20208;-91
2022/07/05 06:55:46;;;;;;;5.13;4.60;;;27.70;91.50;;;;;;5011337;28;20171;-93
2022/07/05 06:58:12;;;;;;;5.23;4.37;;;27.80;91.50;;;;;;4995121;28;20459;-90
2022/07/05 07:00:41;;;;;;;5.23;4.70;;;27.80;91.50;;;;;;4994396;28;20432;-91
2022/07/05 07:03:07;;;;;;;4.90;4.40;;;27.90;91.50;;;;;;4994645;28;20440;-90
2022/07/05 07:05:33;;;;;;;5.33;4.40;;;27.90;91.40;;;;;;4994679;28;20431;-92
2022/07/05 07:10:42;;;;;;;9.90;4.43;;;28.00;91.70;;;;;;5014622;28;20738;-88
2022/07/05 07:13:08;;;;;;;6.13;4.40;;;28.10;91.40;;;;;;4996395;28;20444;-91
2022/07/05 07:15:34;;;;;;;7.73;4.53;;;28.20;91.30;;;;;;4997058;28;20194;-92
2022/07/05 07:18:00;;;;;;;6.90;5.00;;;28.20;91.20;;;;;;4992305;28;20199;-91
2022/07/05 07:20:26;;;;;;;5.10;4.07;;;28.30;91.10;;;;;;4994002;28;20179;-90
2022/07/05 07:22:52;;;;;;;5.00;4.50;;;28.30;91.10;;;;;;4993649;28;20544;-92
2022/07/05 07:25:20;;;;;;;5.60;4.53;;;28.40;91.10;;;;;;4992960;28;20467;-92
2022/07/05 07:27:53;;;;;;;5.10;4.40;;;28.40;91.00;;;;;;4996875;28;20209;-91
2022/07/05 07:30:26;;;;;;;5.00;4.50;;;28.50;91.00;;;;;;5007989;28;20427;-93
2022/07/05 07:32:52;;;;;;;5.67;5.10;;;28.60;90.90;;;;;;5011364;28;20445;-89
2022/07/05 07:35:18;;;;;;;12.20;5.10;;;28.60;90.80;;;;;;4995491;28;20436;-88
2022/07/05 07:37:43;;;;;;;5.47;4.63;;;28.70;91.10;;;;;;4977134;28;20486;-91
2022/07/05 07:40:09;;;;;;;5.60;5.10;;;28.80;90.70;;;;;;5010388;28;20189;-88
2022/07/05 07:42:35;;;;;;;7.43;4.67;;;28.80;90.70;;;;;;4986951;28;20631;-92
2022/07/05 07:45:03;;;;;;;5.53;4.53;;;28.90;90.40;;;;;;5010468;28;20416;-88
2022/07/05 07:47:33;;;;;;;4.80;4.30;;;28.90;90.40;;;;;;5011045;28;20443;-89
2022/07/05 07:49:59;;;;;;;5.20;4.80;;;29.00;90.40;;;;;;5012919;28;20466;-89
2022/07/05 07:52:25;;;;;;;5.60;4.10;;;29.00;90.40;;;;;;4992381;28;20843;-90
2022/07/05 07:54:50;;;;;;;5.57;3.90;;;29.10;90.30;;;;;;5010201;28;20473;-88
2022/07/05 07:57:16;;;;;;;5.80;4.90;;;29.20;90.20;;;;;;5008849;28;20325;-87
2022/07/05 07:59:42;;;;;;;4.60;4.20;;;29.20;90.10;;;;;;5004396;28;20180;-86
2022/07/05 08:02:07;;;;;;;5.00;4.50;;;29.30;89.70;;;;;;5003276;28;21022;-91
2022/07/05 08:04:33;;;;;;;5.00;4.50;;;29.40;90.20;;;;;;4988527;28;20486;-89
2022/07/05 08:06:59;;;;;;;9.03;5.03;;;29.50;89.80;;;;;;4988895;28;20215;-92
2022/07/05 08:09:25;;;;;;;4.90;4.50;;;29.50;89.90;;;;;;5009705;28;20278;-89
2022/07/05 08:11:51;;;;;;;6.23;5.17;;;29.50;89.80;;;;;;4993580;28;20546;-87
2022/07/05 08:14:17;;;;;;;5.80;5.20;;;29.60;89.20;;;;;;4991816;28;20623;-86
2022/07/05 08:16:45;;;;;;;5.63;4.63;;;29.60;89.50;;;;;;4992220;28;20245;-87
2022/07/05 08:21:55;;;;;;;5.13;4.63;;;29.80;89.30;;;;;;5012394;28;20602;-88
2022/07/05 08:24:21;;;;;;;5.27;4.50;;;29.70;89.40;;;;;;4992887;28;20519;-87
2022/07/05 08:26:46;;;;;;;4.47;4.07;;;29.80;88.90;;;;;;5006411;28;20196;-89
2022/07/05 08:29:13;;;;;;;8.83;4.60;;;29.80;89.10;;;;;;5003438;28;20505;-85
2022/07/05 08:31:42;;;;;;;5.47;4.97;;;29.70;89.10;;;;;;4988600;28;20216;-85
2022/07/05 08:34:08;;;;;;;5.23;4.73;;;29.80;88.00;;;;;;5005912;28;20470;-92
2022/07/05 08:36:33;;;;;;;4.97;4.57;;;29.90;88.00;;;;;;4987452;28;21010;-90
2022/07/05 08:38:59;;;;;;;5.53;4.30;;;30.00;88.00;;;;;;4990119;28;20433;-88
2022/07/05 08:41:26;;;;;;;4.80;4.40;;;30.00;88.30;;;;;;4989362;28;20305;-88
2022/07/05 08:43:51;;;;;;;4.83;4.33;;;30.10;88.10;;;;;;5011416;28;20197;-90
2022/07/05 08:46:18;;;;;;;6.20;4.77;;;30.10;88.30;;;;;;5011285;28;20440;-91
2022/07/05 08:48:47;;;;;;;7.20;4.30;;;30.20;87.80;;;;;;4990324;28;20249;-92
2022/07/05 08:51:20;;;;;;;5.20;4.67;;;30.30;88.00;;;;;;5012992;28;20516;-89
2022/07/05 08:53:47;;;;;;;4.30;4.00;;;30.40;88.00;;;;;;5011425;28;20445;-91
2022/07/05 08:56:14;;;;;;;6.87;4.70;;;30.40;87.90;;;;;;5013604;28;20473;-89
2022/07/05 08:58:41;;;;;;;6.57;4.73;;;30.50;87.60;;;;;;5028795;28;20524;-89
2022/07/05 09:01:08;;;;;;;7.13;4.50;;;30.50;87.60;;;;;;5012802;28;20441;-90
2022/07/05 09:03:50;;;;;;;5.27;4.77;;;30.50;87.60;;;;;;5011251;28;20429;-90
2022/07/05 09:06:21;;;;;;;4.30;3.90;;;30.50;87.40;;;;;;5012746;28;21093;-88
2022/07/05 09:08:50;;;;;;;4.90;4.40;;;30.60;87.10;;;;;;5010859;28;20440;-88
2022/07/05 09:11:17;;;;;;;4.30;4.00;;;30.60;86.60;;;;;;5008938;28;20551;-88
2022/07/05 09:13:48;;;;;;;4.87;4.37;;;30.60;87.20;;;;;;5009380;28;20439;-91
2022/07/05 09:16:14;;;;;;;5.67;4.50;;;30.60;87.20;;;;;;5012954;28;20556;-91
2022/07/05 09:18:54;;;;;;;5.50;4.53;;;30.70;86.90;;;;;;5011124;28;20477;-88
2022/07/05 09:21:23;;;;;;;6.23;4.57;;;30.80;86.60;;;;;;5010137;28;20597;-91
2022/07/05 09:24:01;;;;;;;4.33;3.93;;;30.80;86.30;;;;;;5008693;28;20439;-89
2022/07/05 09:26:44;;;;;;;4.80;4.37;;;30.90;86.60;;;;;;5004506;28;20453;-89
2022/07/05 09:29:15;;;;;;;4.80;4.30;;;30.90;86.60;;;;;;5024590;28;20453;-88
2022/07/05 09:31:44;;;;;;;4.73;4.30;;;30.90;86.60;;;;;;5011608;28;20458;-89
2022/07/05 09:34:11;;;;;;;3.80;3.50;;;31.00;85.30;;;;;;5011721;28;20446;-91
2022/07/05 09:36:56;;;;;;;7.10;4.37;;;31.10;84.70;;;;;;5011803;28;20485;-91
2022/07/05 09:39:34;;;;;;;4.63;4.23;;;31.20;85.40;;;;;;5003875;28;20447;-91
2022/07/05 09:42:22;;;;;;;4.97;3.67;;;31.30;85.00;;;;;;5008681;28;20468;-90
2022/07/05 09:44:57;;;;;;;3.90;3.60;;;31.30;85.30;;;;;;5026714;28;20448;-90
2022/07/05 09:47:26;;;;;;;7.07;3.73;;;31.50;84.10;;;;;;5013552;28;20864;-89
2022/07/05 09:49:54;;;;;;;4.63;4.13;;;31.50;83.60;;;;;;5006620;28;20480;-88
2022/07/05 09:52:37;;;;;;;4.20;3.70;;;31.60;83.40;;;;;;5003864;28;21023;-87
2022/07/05 09:55:08;;;;;;;5.40;4.03;;;31.50;84.20;;;;;;5001119;28;20447;-89
2022/07/05 09:57:36;;;;;;;4.50;4.10;;;31.60;84.80;;;;;;5001817;28;20482;-89
2022/07/05 10:00:10;;;;;;;5.77;3.67;;;31.60;84.70;;;;;;5002527;28;21010;-90
2022/07/05 10:02:50;;;;;;;5.33;3.37;;;31.60;83.90;;;;;;5007505;28;20500;-88
2022/07/05 10:05:18;;;;;;;5.70;3.90;;;31.70;84.20;;;;;;5008420;28;20443;-89
2022/07/05 10:07:48;;;;;;;5.53;5.07;;;31.70;82.80;;;;;;5005874;28;20467;-90
2022/07/05 10:10:15;;;;;;;5.40;4.63;;;31.90;82.10;;;;;;5008261;28;20432;-90
2022/07/05 10:12:43;;;;;;;6.40;4.20;;;32.00;82.10;;;;;;5009191;28;20491;-87
2022/07/05 10:15:11;;;;;;;4.17;3.80;;;31.90;84.10;;;;;;5008611;28;20470;-88
2022/07/05 10:17:41;;;;;;;4.20;3.90;;;31.80;83.80;;;;;;5006678;28;20515;-88
2022/07/05 10:20:19;;;;;;;3.87;3.57;;;31.90;82.50;;;;;;5002914;28;20819;-89
2022/07/05 10:22:46;;;;;;;7.10;4.07;;;32.00;82.50;;;;;;4997256;28;20456;-88
2022/07/05 10:25:13;;;;;;;4.30;3.90;;;32.00;83.10;;;;;;5003249;28;20437;-88
2022/07/05 10:27:39;;;;;;;5.07;4.30;;;32.00;83.90;;;;;;5001560;28;20444;-90
2022/07/05 10:30:06;;;;;;;6.10;4.00;;;32.10;84.20;;;;;;5014463;28;20439;-88
2022/07/05 10:32:35;;;;;;;4.00;3.70;;;32.10;83.50;;;;;;5028841;28;20478;-88
2022/07/05 10:35:02;;;;;;;6.13;4.27;;;32.10;83.50;;;;;;5010177;28;20494;-88
2022/07/05 10:37:34;;;;;;;4.33;3.93;;;32.20;82.90;;;;;;5009459;28;20965;-88
2022/07/05 10:40:03;;;;;;;3.80;3.50;;;32.10;83.00;;;;;;5010235;28;20921;-88
2022/07/05 10:42:35;;;;;;;8.30;3.70;;;32.10;83.00;;;;;;5007796;28;20525;-86
2022/07/05 10:45:02;;;;;;;5.23;4.80;;;32.20;82.30;;;;;;5008014;28;20512;-89
2022/07/05 10:47:29;;;;;;;7.00;4.33;;;32.00;83.10;;;;;;5005622;28;20486;-89
2022/07/05 10:50:05;;;;;;;5.03;3.40;;;32.00;84.10;;;;;;5011070;28;20494;-87
2022/07/05 10:52:31;;;;;;;3.87;3.50;;;32.00;84.80;;;;;;4994277;28;20927;-88
2022/07/05 10:55:18;;;;;;;4.80;3.50;;;32.10;85.30;;;;;;5013451;28;20496;-88
2022/07/05 10:57:44;;;;;;;3.63;3.20;;;32.20;85.00;;;;;;5013409;28;20222;-88
2022/07/05 11:00:11;;;;;;;3.37;3.00;;;32.30;84.90;;;;;;5013430;28;20450;-89
2022/07/05 11:02:38;;;;;;;6.70;3.67;;;32.30;84.50;;;;;;4992135;28;20301;-89
2022/07/05 11:05:04;;;;;;;5.40;2.23;;;32.20;85.40;;;;;;5011047;28;20424;-91
2022/07/05 11:08:04;;;;;;;7.43;2.87;;;32.20;86.10;;;;;;4996277;28;20499;-90
2022/07/05 11:10:33;;;;;;;16.70;3.50;;;32.10;87.00;;;;;;5010681;28;20444;-90
2022/07/05 11:13:20;;;;;;;8.27;2.40;;;32.10;87.80;;;;;;5001060;28;20476;-90
2022/07/05 11:16:29;;;;;;;2.80;2.03;;;32.00;88.30;;;;;;5012729;28;20439;-90
2022/07/05 11:19:10;;;;;;;14.00;3.80;;;31.80;88.00;;;;;;4989246;28;20479;-90
2022/07/05 11:21:38;;;;;;;7.73;2.63;;;31.60;88.30;;;;;;4990832;28;20466;-88
2022/07/05 11:24:20;;;;;;;4.83;2.40;;;31.50;88.70;;;;;;4997780;28;20882;-87
2022/07/05 11:26:48;;;;;;;15.97;2.67;;;31.30;87.50;;;;;;5012937;28;20486;-89
2022/07/05 11:29:46;;;;;;;2.80;2.40;;;31.20;88.80;;;;;;5007654;28;20442;-88
2022/07/05 11:32:23;;;;;;;4.80;2.30;;;31.20;88.30;;;;;;5009784;28;20537;-88
2022/07/05 11:34:48;;;;;;;3.13;2.67;;;31.20;88.10;;;;;;5011972;28;20445;-88
2022/07/05 11:37:14;;;;;;;3.17;2.87;;;31.10;87.50;;;;;;5006057;28;20637;-88
2022/07/05 11:39:45;;;;;;;6.93;2.37;;;31.10;86.70;;;;;;4999580;28;20190;-89
2022/07/05 11:42:18;;;;;;;6.07;3.03;;;31.10;86.50;;;;;;4991070;28;20548;-87
2022/07/05 11:44:45;;;;;;;7.17;3.13;;;31.10;86.60;;;;;;4990190;28;20435;-88
2022/07/05 11:47:13;;;;;;;5.60;3.00;;;31.10;86.80;;;;;;5000576;28;20453;-88
2022/07/05 11:49:39;;;;;;;5.30;2.70;;;31.10;87.10;;;;;;4998002;28;20577;-89
2022/07/05 11:52:05;;;;;;;3.83;2.70;;;31.10;85.70;;;;;;5009809;28;20452;-89
2022/07/05 11:54:34;;;;;;;3.30;2.70;;;31.00;84.90;;;;;;5002917;28;20181;-88
2022/07/05 11:57:00;;;;;;;9.30;2.93;;;31.00;84.20;;;;;;5024729;28;20594;-88
2022/07/05 11:59:26;;;;;;;10.33;2.50;;;30.80;85.30;;;;;;5008709;28;20424;-89
2022/07/05 12:01:55;;;;;;;2.67;2.10;;;30.50;86.00;;;;;;5003547;28;20454;-88
2022/07/05 12:04:30;;;;;;;2.23;2.03;;;30.40;85.00;;;;;;5022229;28;20433;-89
2022/07/05 12:06:57;;;;;;;3.77;2.03;;;30.20;85.80;;;;;;5007257;28;20520;-91
2022/07/05 12:09:25;;;;;;;4.87;2.27;;;30.10;87.10;;;;;;5010839;28;20458;-90
2022/07/05 12:14:52;;;;;;;4.57;2.60;;;29.80;92.30;;;;;;5001867;28;20531;-91
2022/07/05 12:17:19;;;;;;;5.17;2.90;;;29.60;93.30;;;;;;5004149;28;20517;-93
2022/07/05 12:19:45;;;;;;;6.23;2.67;;;29.30;93.80;;;;;;5007961;28;20446;-89
2022/07/05 12:22:12;;;;;;;2.97;2.53;;;29.10;93.70;;;;;;5009823;28;20455;-89
2022/07/05 12:24:38;;;;;;;2.83;2.47;;;28.90;94.70;;;;;;5010558;28;20468;-87
2022/07/05 12:27:05;;;;;;;5.87;3.23;;;28.70;95.00;;;;;;5023103;28;20490;-88
2022/07/05 12:29:31;;;;;;;3.13;2.17;;;28.50;95.20;;;;;;5005899;28;20422;-87
2022/07/05 12:32:08;;;;;;;5.50;3.13;;;28.40;95.80;;;;;;5012204;28;20571;-87
2022/07/05 12:34:34;;;;;;;4.10;2.63;;;28.20;95.90;;;;;;5011051;28;20933;-87
2022/07/05 12:37:00;;;;;;;4.90;2.70;;;28.00;95.90;;;;;;5000672;28;20487;-90
2022/07/05 12:39:25;;;;;;;2.97;2.73;;;27.90;96.20;;;;;;5007200;28;20194;-87
2022/07/05 12:41:51;;;;;;;2.83;2.50;;;27.70;97.20;;;;;;5010866;28;20684;-90
2022/07/05 12:44:20;;;;;;;3.00;2.80;;;27.60;96.80;;;;;;5002860;28;20180;-90
2022/07/05 12:46:49;;;;;;;3.40;2.70;;;27.40;97.00;;;;;;5005804;28;20195;-90
2022/07/05 12:49:15;;;;;;;2.97;2.67;;;27.30;97.50;;;;;;5009778;28;20507;-90
2022/07/05 12:51:43;;;;;;;3.20;2.70;;;27.20;97.80;;;;;;5012202;28;20452;-89
2022/07/05 12:59:59;;;;;;;8.20;2.57;;;27.10;97.10;;;;;;5000960;28;20474;-89
2022/07/05 13:02:41;;;;;;;3.97;2.67;;;27.10;97.30;;;;;;5005120;28;20803;-92
2022/07/05 13:05:28;;;;;;;4.07;2.63;;;27.10;97.30;;;;;;5012442;28;20455;-92